sensor_id;sensor_type;location;lat;lon;timestamp;P1;durP1;ratioP1;P2;durP2;ratioP2
25932;SDS011;13731;51.166;4.474;2023-12-29T00:02:18;93.88;;;88.85;;
25932;SDS011;13731;51.166;4.474;2023-12-29T00:04:44;93.40;;;88.07;;
25932;SDS011;13731;51.166;4.474;2023-12-29T00:07:10;73.07;;;68.95;;
25932;SDS011;13731;51.166;4.474;2023-12-29T00:09:36;88.20;;;83.28;;
25932;SDS011;13731;51.166;4.474;2023-12-29T00:12:08;65.25;;;61.42;;
25932;SDS011;13731;51.166;4.474;2023-12-29T00:14:38;145.70;;;137.18;;
25932;SDS011;13731;51.166;4.474;2023-12-29T00:17:05;73.93;;;69.63;;
25932;SDS011;13731;51.166;4.474;2023-12-29T00:19:33;143.38;;;134.85;;
25932;SDS011;13731;51.166;4.474;2023-12-29T00:21:58;178.13;;;168.52;;
25932;SDS011;13731;51.166;4.474;2023-12-29T00:24:27;321.00;;;300.58;;
25932;SDS011;13731;51.166;4.474;2023-12-29T00:26:53;449.08;;;421.42;;
25932;SDS011;13731;51.166;4.474;2023-12-29T00:29:19;469.80;;;440.17;;
25932;SDS011;13731;51.166;4.474;2023-12-29T00:31:45;392.75;;;368.73;;
25932;SDS011;13731;51.166;4.474;2023-12-29T00:34:12;479.92;;;450.95;;
25932;SDS011;13731;51.166;4.474;2023-12-29T00:36:39;380.80;;;358.92;;
25932;SDS011;13731;51.166;4.474;2023-12-29T00:39:04;362.77;;;341.83;;
25932;SDS011;13731;51.166;4.474;2023-12-29T00:41:31;407.20;;;381.58;;
25932;SDS011;13731;51.166;4.474;2023-12-29T00:43:57;375.73;;;353.38;;
25932;SDS011;13731;51.166;4.474;2023-12-29T00:46:23;542.08;;;503.65;;
25932;SDS011;13731;51.166;4.474;2023-12-29T00:48:49;408.88;;;384.25;;
25932;SDS011;13731;51.166;4.474;2023-12-29T00:51:15;396.45;;;373.52;;
25932;SDS011;13731;51.166;4.474;2023-12-29T00:53:42;528.05;;;487.90;;
25932;SDS011;13731;51.166;4.474;2023-12-29T00:56:10;390.65;;;367.90;;
25932;SDS011;13731;51.166;4.474;2023-12-29T00:58:38;414.20;;;389.83;;
25932;SDS011;13731;51.166;4.474;2023-12-29T01:01:06;357.45;;;335.63;;
25932;SDS011;13731;51.166;4.474;2023-12-29T01:03:37;308.13;;;289.65;;
25932;SDS011;13731;51.166;4.474;2023-12-29T01:06:03;343.25;;;323.25;;
25932;SDS011;13731;51.166;4.474;2023-12-29T01:08:29;324.33;;;305.92;;
25932;SDS011;13731;51.166;4.474;2023-12-29T01:10:55;305.58;;;287.73;;
25932;SDS011;13731;51.166;4.474;2023-12-29T01:13:23;281.83;;;265.65;;
25932;SDS011;13731;51.166;4.474;2023-12-29T01:15:49;312.70;;;294.50;;
25932;SDS011;13731;51.166;4.474;2023-12-29T01:18:15;300.30;;;283.17;;
25932;SDS011;13731;51.166;4.474;2023-12-29T01:20:40;258.33;;;242.80;;
25932;SDS011;13731;51.166;4.474;2023-12-29T01:23:07;315.33;;;295.65;;
25932;SDS011;13731;51.166;4.474;2023-12-29T01:25:33;405.83;;;375.45;;
25932;SDS011;13731;51.166;4.474;2023-12-29T01:27:58;219.18;;;207.18;;
25932;SDS011;13731;51.166;4.474;2023-12-29T01:30:24;172.23;;;162.60;;
25932;SDS011;13731;51.166;4.474;2023-12-29T01:32:50;344.00;;;321.85;;
25932;SDS011;13731;51.166;4.474;2023-12-29T01:35:16;180.77;;;170.82;;
25932;SDS011;13731;51.166;4.474;2023-12-29T01:37:44;293.70;;;276.67;;
25932;SDS011;13731;51.166;4.474;2023-12-29T01:40:10;189.85;;;179.68;;
25932;SDS011;13731;51.166;4.474;2023-12-29T01:42:36;301.63;;;284.02;;
25932;SDS011;13731;51.166;4.474;2023-12-29T01:45:02;230.63;;;218.68;;
25932;SDS011;13731;51.166;4.474;2023-12-29T01:47:30;211.77;;;200.82;;
25932;SDS011;13731;51.166;4.474;2023-12-29T01:49:58;226.18;;;214.20;;
25932;SDS011;13731;51.166;4.474;2023-12-29T01:52:23;241.25;;;228.63;;
25932;SDS011;13731;51.166;4.474;2023-12-29T01:54:50;234.73;;;222.38;;
25932;SDS011;13731;51.166;4.474;2023-12-29T01:57:18;246.03;;;233.53;;
25932;SDS011;13731;51.166;4.474;2023-12-29T01:59:45;276.45;;;261.23;;
25932;SDS011;13731;51.166;4.474;2023-12-29T02:02:13;361.35;;;335.98;;
25932;SDS011;13731;51.166;4.474;2023-12-29T02:04:40;228.90;;;216.07;;
25932;SDS011;13731;51.166;4.474;2023-12-29T02:07:07;202.90;;;192.05;;
25932;SDS011;13731;51.166;4.474;2023-12-29T02:09:33;192.63;;;182.15;;
25932;SDS011;13731;51.166;4.474;2023-12-29T02:12:00;281.80;;;264.73;;
25932;SDS011;13731;51.166;4.474;2023-12-29T02:14:26;188.85;;;178.68;;
25932;SDS011;13731;51.166;4.474;2023-12-29T02:22:08;187.18;;;177.18;;
25932;SDS011;13731;51.166;4.474;2023-12-29T02:24:34;182.43;;;172.60;;
25932;SDS011;13731;51.166;4.474;2023-12-29T02:27:03;166.18;;;157.30;;
25932;SDS011;13731;51.166;4.474;2023-12-29T02:29:36;172.02;;;162.80;;
25932;SDS011;13731;51.166;4.474;2023-12-29T02:32:04;147.70;;;139.85;;
25932;SDS011;13731;51.166;4.474;2023-12-29T02:34:34;382.25;;;351.73;;
25932;SDS011;13731;51.166;4.474;2023-12-29T02:37:04;195.55;;;184.45;;
25932;SDS011;13731;51.166;4.474;2023-12-29T02:39:30;180.73;;;170.80;;
25932;SDS011;13731;51.166;4.474;2023-12-29T02:41:56;349.17;;;319.90;;
25932;SDS011;13731;51.166;4.474;2023-12-29T02:44:22;201.85;;;190.18;;
25932;SDS011;13731;51.166;4.474;2023-12-29T02:46:48;186.23;;;176.18;;
25932;SDS011;13731;51.166;4.474;2023-12-29T02:49:14;189.02;;;178.57;;
25932;SDS011;13731;51.166;4.474;2023-12-29T02:51:41;191.35;;;181.00;;
25932;SDS011;13731;51.166;4.474;2023-12-29T02:54:07;188.13;;;178.13;;
25932;SDS011;13731;51.166;4.474;2023-12-29T02:56:34;209.93;;;198.45;;
25932;SDS011;13731;51.166;4.474;2023-12-29T02:59:00;235.32;;;220.77;;
25932;SDS011;13731;51.166;4.474;2023-12-29T03:01:26;298.10;;;275.70;;
25932;SDS011;13731;51.166;4.474;2023-12-29T03:03:54;301.92;;;283.13;;
25932;SDS011;13731;51.166;4.474;2023-12-29T03:06:20;352.77;;;330.25;;
25932;SDS011;13731;51.166;4.474;2023-12-29T03:08:46;208.10;;;197.05;;
25932;SDS011;13731;51.166;4.474;2023-12-29T03:11:12;404.38;;;375.13;;
25932;SDS011;13731;51.166;4.474;2023-12-29T03:13:38;261.27;;;246.07;;
25932;SDS011;13731;51.166;4.474;2023-12-29T03:16:04;288.13;;;270.42;;
25932;SDS011;13731;51.166;4.474;2023-12-29T03:18:30;229.30;;;214.52;;
25932;SDS011;13731;51.166;4.474;2023-12-29T03:20:57;195.43;;;185.00;;
25932;SDS011;13731;51.166;4.474;2023-12-29T03:23:23;308.58;;;288.60;;
25932;SDS011;13731;51.166;4.474;2023-12-29T03:25:49;208.10;;;196.90;;
25932;SDS011;13731;51.166;4.474;2023-12-29T03:28:15;222.68;;;210.90;;
25932;SDS011;13731;51.166;4.474;2023-12-29T03:30:42;348.23;;;326.75;;
25932;SDS011;13731;51.166;4.474;2023-12-29T03:33:11;349.42;;;321.33;;
25932;SDS011;13731;51.166;4.474;2023-12-29T03:35:37;226.02;;;213.55;;
25932;SDS011;13731;51.166;4.474;2023-12-29T03:38:03;238.00;;;224.70;;
25932;SDS011;13731;51.166;4.474;2023-12-29T03:40:29;210.00;;;199.05;;
25932;SDS011;13731;51.166;4.474;2023-12-29T03:42:55;208.57;;;197.68;;
25932;SDS011;13731;51.166;4.474;2023-12-29T03:45:21;244.10;;;230.63;;
25932;SDS011;13731;51.166;4.474;2023-12-29T03:47:47;262.58;;;247.75;;
25932;SDS011;13731;51.166;4.474;2023-12-29T03:50:13;260.88;;;245.80;;
25932;SDS011;13731;51.166;4.474;2023-12-29T03:52:38;209.90;;;198.48;;
25932;SDS011;13731;51.166;4.474;2023-12-29T03:55:04;336.33;;;315.52;;
25932;SDS011;13731;51.166;4.474;2023-12-29T03:57:32;237.52;;;224.20;;
25932;SDS011;13731;51.166;4.474;2023-12-29T03:59:57;436.33;;;400.45;;
25932;SDS011;13731;51.166;4.474;2023-12-29T04:02:23;221.32;;;209.45;;
25932;SDS011;13731;51.166;4.474;2023-12-29T04:04:49;251.52;;;237.45;;
25932;SDS011;13731;51.166;4.474;2023-12-29T04:07:15;240.77;;;227.68;;
25932;SDS011;13731;51.166;4.474;2023-12-29T04:09:42;256.48;;;242.32;;
25932;SDS011;13731;51.166;4.474;2023-12-29T04:12:08;249.48;;;235.63;;
25932;SDS011;13731;51.166;4.474;2023-12-29T04:14:34;226.70;;;214.05;;
25932;SDS011;13731;51.166;4.474;2023-12-29T04:17:00;238.15;;;224.98;;
25932;SDS011;13731;51.166;4.474;2023-12-29T04:19:28;257.25;;;243.10;;
25932;SDS011;13731;51.166;4.474;2023-12-29T04:21:54;249.98;;;234.48;;
25932;SDS011;13731;51.166;4.474;2023-12-29T04:24:20;270.55;;;254.55;;
25932;SDS011;13731;51.166;4.474;2023-12-29T04:26:46;231.27;;;217.93;;
25932;SDS011;13731;51.166;4.474;2023-12-29T04:29:12;227.00;;;214.23;;
25932;SDS011;13731;51.166;4.474;2023-12-29T04:31:39;256.73;;;242.20;;
25932;SDS011;13731;51.166;4.474;2023-12-29T04:34:05;249.40;;;235.10;;
25932;SDS011;13731;51.166;4.474;2023-12-29T04:36:31;268.67;;;253.57;;
25932;SDS011;13731;51.166;4.474;2023-12-29T04:38:57;323.83;;;303.67;;
25932;SDS011;13731;51.166;4.474;2023-12-29T04:41:23;299.40;;;281.80;;
25932;SDS011;13731;51.166;4.474;2023-12-29T04:43:49;249.38;;;234.95;;
25932;SDS011;13731;51.166;4.474;2023-12-29T04:46:15;241.93;;;227.70;;
25932;SDS011;13731;51.166;4.474;2023-12-29T04:48:41;289.77;;;273.13;;
25932;SDS011;13731;51.166;4.474;2023-12-29T04:51:07;257.83;;;243.30;;
25932;SDS011;13731;51.166;4.474;2023-12-29T04:53:33;269.95;;;254.50;;
25932;SDS011;13731;51.166;4.474;2023-12-29T04:55:59;258.23;;;243.82;;
25932;SDS011;13731;51.166;4.474;2023-12-29T04:58:25;303.88;;;285.83;;
25932;SDS011;13731;51.166;4.474;2023-12-29T05:00:52;269.65;;;254.07;;
25932;SDS011;13731;51.166;4.474;2023-12-29T05:03:19;262.30;;;247.63;;
25932;SDS011;13731;51.166;4.474;2023-12-29T05:05:45;294.58;;;277.58;;
25932;SDS011;13731;51.166;4.474;2023-12-29T05:08:11;261.20;;;246.82;;
25932;SDS011;13731;51.166;4.474;2023-12-29T05:10:37;265.05;;;250.25;;
25932;SDS011;13731;51.166;4.474;2023-12-29T05:13:03;369.15;;;344.05;;
25932;SDS011;13731;51.166;4.474;2023-12-29T05:15:29;297.08;;;280.30;;
25932;SDS011;13731;51.166;4.474;2023-12-29T05:17:55;272.67;;;256.17;;
25932;SDS011;13731;51.166;4.474;2023-12-29T05:20:21;267.80;;;252.10;;
25932;SDS011;13731;51.166;4.474;2023-12-29T05:22:47;282.60;;;265.52;;
25932;SDS011;13731;51.166;4.474;2023-12-29T05:25:13;370.58;;;347.77;;
25932;SDS011;13731;51.166;4.474;2023-12-29T05:27:39;310.40;;;292.48;;
25932;SDS011;13731;51.166;4.474;2023-12-29T05:30:05;312.30;;;294.30;;
25932;SDS011;13731;51.166;4.474;2023-12-29T05:32:31;298.80;;;281.75;;
25932;SDS011;13731;51.166;4.474;2023-12-29T05:34:57;375.25;;;352.80;;
25932;SDS011;13731;51.166;4.474;2023-12-29T05:37:24;437.50;;;389.08;;
25932;SDS011;13731;51.166;4.474;2023-12-29T05:39:50;315.63;;;297.48;;
25932;SDS011;13731;51.166;4.474;2023-12-29T05:42:16;305.27;;;287.38;;
25932;SDS011;13731;51.166;4.474;2023-12-29T05:44:41;317.92;;;299.70;;
25932;SDS011;13731;51.166;4.474;2023-12-29T05:47:07;392.25;;;368.95;;
25932;SDS011;13731;51.166;4.474;2023-12-29T05:49:34;337.88;;;318.58;;
25932;SDS011;13731;51.166;4.474;2023-12-29T05:52:05;361.10;;;340.40;;
25932;SDS011;13731;51.166;4.474;2023-12-29T05:54:31;358.27;;;337.77;;
25932;SDS011;13731;51.166;4.474;2023-12-29T05:56:58;361.40;;;341.02;;
25932;SDS011;13731;51.166;4.474;2023-12-29T05:59:24;361.25;;;340.80;;
25932;SDS011;13731;51.166;4.474;2023-12-29T06:01:50;308.40;;;292.15;;
25932;SDS011;13731;51.166;4.474;2023-12-29T06:04:15;349.90;;;330.63;;
25932;SDS011;13731;51.166;4.474;2023-12-29T06:06:42;332.05;;;314.25;;
25932;SDS011;13731;51.166;4.474;2023-12-29T06:09:11;330.52;;;312.58;;
25932;SDS011;13731;51.166;4.474;2023-12-29T06:11:37;306.50;;;289.95;;
25932;SDS011;13731;51.166;4.474;2023-12-29T06:14:03;297.30;;;281.33;;
25932;SDS011;13731;51.166;4.474;2023-12-29T06:16:29;326.75;;;308.27;;
25932;SDS011;13731;51.166;4.474;2023-12-29T06:18:55;324.42;;;306.33;;
25932;SDS011;13731;51.166;4.474;2023-12-29T06:21:21;379.80;;;356.23;;
25932;SDS011;13731;51.166;4.474;2023-12-29T06:23:47;388.35;;;365.25;;
25932;SDS011;13731;51.166;4.474;2023-12-29T06:26:17;342.13;;;323.48;;
25932;SDS011;13731;51.166;4.474;2023-12-29T06:28:45;317.95;;;301.02;;
25932;SDS011;13731;51.166;4.474;2023-12-29T06:31:12;373.85;;;352.75;;
25932;SDS011;13731;51.166;4.474;2023-12-29T06:33:41;411.08;;;386.33;;
25932;SDS011;13731;51.166;4.474;2023-12-29T06:36:09;300.77;;;283.85;;
25932;SDS011;13731;51.166;4.474;2023-12-29T06:38:35;1008.30;;;754.90;;
25932;SDS011;13731;51.166;4.474;2023-12-29T06:41:02;460.35;;;431.33;;
25932;SDS011;13731;51.166;4.474;2023-12-29T06:43:29;365.70;;;345.38;;
25932;SDS011;13731;51.166;4.474;2023-12-29T06:45:56;354.42;;;334.63;;
25932;SDS011;13731;51.166;4.474;2023-12-29T06:48:22;388.88;;;364.80;;
25932;SDS011;13731;51.166;4.474;2023-12-29T06:50:49;357.15;;;337.33;;
25932;SDS011;13731;51.166;4.474;2023-12-29T06:53:16;338.95;;;319.90;;
25932;SDS011;13731;51.166;4.474;2023-12-29T06:55:42;431.05;;;404.13;;
25932;SDS011;13731;51.166;4.474;2023-12-29T06:58:09;297.70;;;281.45;;
25932;SDS011;13731;51.166;4.474;2023-12-29T07:00:36;337.48;;;318.30;;
25932;SDS011;13731;51.166;4.474;2023-12-29T07:03:02;315.33;;;298.48;;
25932;SDS011;13731;51.166;4.474;2023-12-29T07:05:28;282.23;;;267.55;;
25932;SDS011;13731;51.166;4.474;2023-12-29T07:07:54;339.08;;;319.15;;
25932;SDS011;13731;51.166;4.474;2023-12-29T07:10:20;306.33;;;289.52;;
25932;SDS011;13731;51.166;4.474;2023-12-29T07:12:46;258.17;;;244.48;;
25932;SDS011;13731;51.166;4.474;2023-12-29T07:15:12;316.70;;;297.75;;
25932;SDS011;13731;51.166;4.474;2023-12-29T07:17:39;307.33;;;290.90;;
25932;SDS011;13731;51.166;4.474;2023-12-29T07:20:06;337.00;;;317.65;;
25932;SDS011;13731;51.166;4.474;2023-12-29T07:22:32;299.88;;;283.50;;
25932;SDS011;13731;51.166;4.474;2023-12-29T07:24:59;276.85;;;262.10;;
25932;SDS011;13731;51.166;4.474;2023-12-29T07:27:26;300.50;;;284.42;;
25932;SDS011;13731;51.166;4.474;2023-12-29T07:29:52;354.15;;;329.88;;
25932;SDS011;13731;51.166;4.474;2023-12-29T07:32:17;292.67;;;277.20;;
25932;SDS011;13731;51.166;4.474;2023-12-29T07:34:43;279.48;;;264.42;;
25932;SDS011;13731;51.166;4.474;2023-12-29T07:37:10;291.83;;;276.75;;
25932;SDS011;13731;51.166;4.474;2023-12-29T07:39:36;304.90;;;288.40;;
25932;SDS011;13731;51.166;4.474;2023-12-29T07:42:02;289.30;;;274.02;;
25932;SDS011;13731;51.166;4.474;2023-12-29T07:44:30;300.20;;;284.40;;
25932;SDS011;13731;51.166;4.474;2023-12-29T07:46:57;379.83;;;356.38;;
25932;SDS011;13731;51.166;4.474;2023-12-29T07:49:23;346.75;;;327.30;;
25932;SDS011;13731;51.166;4.474;2023-12-29T07:51:51;319.98;;;302.83;;
25932;SDS011;13731;51.166;4.474;2023-12-29T07:54:17;337.42;;;319.38;;
25932;SDS011;13731;51.166;4.474;2023-12-29T07:56:43;361.10;;;340.13;;
25932;SDS011;13731;51.166;4.474;2023-12-29T07:59:09;327.33;;;309.23;;
25932;SDS011;13731;51.166;4.474;2023-12-29T08:01:35;330.77;;;313.35;;
25932;SDS011;13731;51.166;4.474;2023-12-29T08:04:02;349.50;;;330.33;;
25932;SDS011;13731;51.166;4.474;2023-12-29T08:06:28;296.20;;;280.60;;
25932;SDS011;13731;51.166;4.474;2023-12-29T08:08:54;333.05;;;315.10;;
25932;SDS011;13731;51.166;4.474;2023-12-29T08:11:20;358.48;;;338.70;;
25932;SDS011;13731;51.166;4.474;2023-12-29T08:13:47;348.10;;;329.52;;
25932;SDS011;13731;51.166;4.474;2023-12-29T08:16:14;336.33;;;318.70;;
25932;SDS011;13731;51.166;4.474;2023-12-29T08:18:42;338.38;;;320.42;;
25932;SDS011;13731;51.166;4.474;2023-12-29T08:21:08;283.23;;;268.27;;
25932;SDS011;13731;51.166;4.474;2023-12-29T08:23:41;365.30;;;344.95;;
25932;SDS011;13731;51.166;4.474;2023-12-29T08:26:07;337.20;;;319.20;;
25932;SDS011;13731;51.166;4.474;2023-12-29T08:28:33;320.88;;;303.85;;
25932;SDS011;13731;51.166;4.474;2023-12-29T08:30:58;345.83;;;327.08;;
25932;SDS011;13731;51.166;4.474;2023-12-29T08:33:24;376.30;;;356.23;;
25932;SDS011;13731;51.166;4.474;2023-12-29T08:35:50;361.85;;;342.50;;
25932;SDS011;13731;51.166;4.474;2023-12-29T08:38:16;393.13;;;371.80;;
25932;SDS011;13731;51.166;4.474;2023-12-29T08:40:42;440.40;;;415.15;;
25932;SDS011;13731;51.166;4.474;2023-12-29T08:43:08;445.05;;;420.88;;
25932;SDS011;13731;51.166;4.474;2023-12-29T08:45:34;440.83;;;414.67;;
25932;SDS011;13731;51.166;4.474;2023-12-29T08:48:01;508.90;;;478.02;;
25932;SDS011;13731;51.166;4.474;2023-12-29T08:50:28;402.83;;;380.23;;
25932;SDS011;13731;51.166;4.474;2023-12-29T08:52:54;1276.47;;;824.00;;
25932;SDS011;13731;51.166;4.474;2023-12-29T08:55:20;475.85;;;448.08;;
25932;SDS011;13731;51.166;4.474;2023-12-29T08:57:46;405.88;;;384.23;;
25932;SDS011;13731;51.166;4.474;2023-12-29T09:00:12;361.65;;;342.95;;
25932;SDS011;13731;51.166;4.474;2023-12-29T09:02:38;360.23;;;341.05;;
25932;SDS011;13731;51.166;4.474;2023-12-29T09:05:04;440.05;;;412.20;;
25932;SDS011;13731;51.166;4.474;2023-12-29T09:07:32;413.23;;;389.45;;
25932;SDS011;13731;51.166;4.474;2023-12-29T09:09:58;386.63;;;365.60;;
25932;SDS011;13731;51.166;4.474;2023-12-29T09:12:27;384.65;;;361.73;;
25932;SDS011;13731;51.166;4.474;2023-12-29T09:14:53;340.75;;;322.17;;
25932;SDS011;13731;51.166;4.474;2023-12-29T09:17:19;409.42;;;383.20;;
25932;SDS011;13731;51.166;4.474;2023-12-29T09:19:45;437.30;;;411.23;;
25932;SDS011;13731;51.166;4.474;2023-12-29T09:22:12;421.80;;;397.63;;
25932;SDS011;13731;51.166;4.474;2023-12-29T09:24:39;345.25;;;326.88;;
25932;SDS011;13731;51.166;4.474;2023-12-29T09:27:06;399.70;;;378.00;;
25932;SDS011;13731;51.166;4.474;2023-12-29T09:29:32;364.52;;;344.75;;
25932;SDS011;13731;51.166;4.474;2023-12-29T09:31:58;346.38;;;327.75;;
25932;SDS011;13731;51.166;4.474;2023-12-29T09:34:24;358.63;;;338.83;;
25932;SDS011;13731;51.166;4.474;2023-12-29T09:36:50;375.60;;;355.63;;
25932;SDS011;13731;51.166;4.474;2023-12-29T09:39:16;349.13;;;330.35;;
25932;SDS011;13731;51.166;4.474;2023-12-29T09:41:43;365.33;;;345.40;;
25932;SDS011;13731;51.166;4.474;2023-12-29T09:44:15;371.90;;;351.38;;
25932;SDS011;13731;51.166;4.474;2023-12-29T09:46:44;379.40;;;358.27;;
25932;SDS011;13731;51.166;4.474;2023-12-29T09:49:14;366.88;;;346.58;;
25932;SDS011;13731;51.166;4.474;2023-12-29T09:51:41;344.92;;;325.40;;
25932;SDS011;13731;51.166;4.474;2023-12-29T09:54:08;388.98;;;367.10;;
25932;SDS011;13731;51.166;4.474;2023-12-29T09:56:37;364.00;;;344.48;;
25932;SDS011;13731;51.166;4.474;2023-12-29T09:59:03;389.45;;;366.52;;
25932;SDS011;13731;51.166;4.474;2023-12-29T10:01:30;388.02;;;366.42;;
25932;SDS011;13731;51.166;4.474;2023-12-29T10:03:57;352.02;;;331.67;;
25932;SDS011;13731;51.166;4.474;2023-12-29T10:06:24;386.08;;;363.13;;
25932;SDS011;13731;51.166;4.474;2023-12-29T10:08:50;448.52;;;421.05;;
25932;SDS011;13731;51.166;4.474;2023-12-29T10:11:18;393.63;;;371.38;;
25932;SDS011;13731;51.166;4.474;2023-12-29T10:13:48;364.08;;;343.88;;
25932;SDS011;13731;51.166;4.474;2023-12-29T10:16:24;347.40;;;328.95;;
25932;SDS011;13731;51.166;4.474;2023-12-29T10:21:47;401.55;;;374.08;;
25932;SDS011;13731;51.166;4.474;2023-12-29T10:24:20;312.55;;;296.60;;
25932;SDS011;13731;51.166;4.474;2023-12-29T10:26:48;306.42;;;289.63;;
25932;SDS011;13731;51.166;4.474;2023-12-29T10:29:15;247.50;;;234.82;;
25932;SDS011;13731;51.166;4.474;2023-12-29T10:31:44;215.32;;;204.38;;
25932;SDS011;13731;51.166;4.474;2023-12-29T10:34:23;218.75;;;208.10;;
25932;SDS011;13731;51.166;4.474;2023-12-29T10:36:59;142.38;;;135.55;;
25932;SDS011;13731;51.166;4.474;2023-12-29T10:39:28;144.77;;;137.52;;
25932;SDS011;13731;51.166;4.474;2023-12-29T10:42:04;157.43;;;149.52;;
25932;SDS011;13731;51.166;4.474;2023-12-29T10:44:35;177.48;;;168.35;;
25932;SDS011;13731;51.166;4.474;2023-12-29T10:47:08;209.05;;;198.70;;
25932;SDS011;13731;51.166;4.474;2023-12-29T10:49:41;280.83;;;265.92;;
25932;SDS011;13731;51.166;4.474;2023-12-29T10:52:11;321.60;;;305.35;;
25932;SDS011;13731;51.166;4.474;2023-12-29T10:54:38;312.98;;;296.20;;
25932;SDS011;13731;51.166;4.474;2023-12-29T10:57:05;348.63;;;329.45;;
25932;SDS011;13731;51.166;4.474;2023-12-29T10:59:31;345.63;;;326.55;;
25932;SDS011;13731;51.166;4.474;2023-12-29T11:01:57;380.83;;;360.10;;
25932;SDS011;13731;51.166;4.474;2023-12-29T11:04:27;394.95;;;372.73;;
25932;SDS011;13731;51.166;4.474;2023-12-29T11:06:54;416.88;;;392.95;;
25932;SDS011;13731;51.166;4.474;2023-12-29T11:09:30;396.95;;;374.90;;
25932;SDS011;13731;51.166;4.474;2023-12-29T11:12:04;380.15;;;359.20;;
25932;SDS011;13731;51.166;4.474;2023-12-29T11:14:33;394.75;;;371.95;;
25932;SDS011;13731;51.166;4.474;2023-12-29T11:17:00;376.80;;;354.48;;
25932;SDS011;13731;51.166;4.474;2023-12-29T11:19:26;429.85;;;403.83;;
25932;SDS011;13731;51.166;4.474;2023-12-29T11:21:54;526.65;;;484.70;;
25932;SDS011;13731;51.166;4.474;2023-12-29T11:24:21;411.87;;;386.83;;
25932;SDS011;13731;51.166;4.474;2023-12-29T11:26:48;398.70;;;375.60;;
25932;SDS011;13731;51.166;4.474;2023-12-29T11:29:18;410.13;;;386.60;;
25932;SDS011;13731;51.166;4.474;2023-12-29T11:31:44;409.13;;;385.45;;
25932;SDS011;13731;51.166;4.474;2023-12-29T11:36:50;408.92;;;384.92;;
25932;SDS011;13731;51.166;4.474;2023-12-29T11:39:24;478.75;;;445.42;;
25932;SDS011;13731;51.166;4.474;2023-12-29T11:42:06;395.75;;;373.35;;
25932;SDS011;13731;51.166;4.474;2023-12-29T11:44:39;425.42;;;399.75;;
25932;SDS011;13731;51.166;4.474;2023-12-29T11:47:05;372.75;;;351.05;;
25932;SDS011;13731;51.166;4.474;2023-12-29T11:50:03;382.13;;;359.23;;
25932;SDS011;13731;51.166;4.474;2023-12-29T11:55:13;375.85;;;353.38;;
25932;SDS011;13731;51.166;4.474;2023-12-29T11:57:45;369.67;;;348.40;;
25932;SDS011;13731;51.166;4.474;2023-12-29T12:00:11;462.80;;;432.58;;
25932;SDS011;13731;51.166;4.474;2023-12-29T12:02:38;391.13;;;367.65;;
25932;SDS011;13731;51.166;4.474;2023-12-29T12:05:04;342.00;;;322.55;;
25932;SDS011;13731;51.166;4.474;2023-12-29T12:10:31;373.55;;;352.52;;
25932;SDS011;13731;51.166;4.474;2023-12-29T12:12:52;375.60;;;353.77;;
25932;SDS011;13731;51.166;4.474;2023-12-29T12:18:04;363.02;;;342.20;;
25932;SDS011;13731;51.166;4.474;2023-12-29T12:20:35;368.70;;;347.58;;
25932;SDS011;13731;51.166;4.474;2023-12-29T12:23:01;410.55;;;385.38;;
25932;SDS011;13731;51.166;4.474;2023-12-29T12:25:31;360.55;;;340.30;;
25932;SDS011;13731;51.166;4.474;2023-12-29T12:28:00;366.88;;;346.40;;
25932;SDS011;13731;51.166;4.474;2023-12-29T12:30:30;384.77;;;362.40;;
25932;SDS011;13731;51.166;4.474;2023-12-29T12:33:00;350.13;;;330.77;;
25932;SDS011;13731;51.166;4.474;2023-12-29T12:35:28;341.05;;;321.85;;
25932;SDS011;13731;51.166;4.474;2023-12-29T12:40:56;458.60;;;430.55;;
25932;SDS011;13731;51.166;4.474;2023-12-29T12:43:23;393.60;;;369.80;;
25932;SDS011;13731;51.166;4.474;2023-12-29T12:51:21;334.67;;;316.17;;
25932;SDS011;13731;51.166;4.474;2023-12-29T12:53:47;354.30;;;335.27;;
25932;SDS011;13731;51.166;4.474;2023-12-29T12:56:15;304.15;;;288.13;;
25932;SDS011;13731;51.166;4.474;2023-12-29T12:58:43;291.20;;;276.08;;
25932;SDS011;13731;51.166;4.474;2023-12-29T13:01:09;280.20;;;265.42;;
25932;SDS011;13731;51.166;4.474;2023-12-29T13:03:37;244.55;;;232.40;;
25932;SDS011;13731;51.166;4.474;2023-12-29T13:06:06;196.82;;;186.88;;
25932;SDS011;13731;51.166;4.474;2023-12-29T13:08:33;227.43;;;215.57;;
25932;SDS011;13731;51.166;4.474;2023-12-29T13:11:00;239.90;;;227.77;;
25932;SDS011;13731;51.166;4.474;2023-12-29T13:13:36;266.10;;;251.23;;
25932;SDS011;13731;51.166;4.474;2023-12-29T13:16:06;218.27;;;207.32;;
25932;SDS011;13731;51.166;4.474;2023-12-29T13:18:32;259.25;;;246.23;;
25932;SDS011;13731;51.166;4.474;2023-12-29T13:21:03;264.95;;;251.10;;
25932;SDS011;13731;51.166;4.474;2023-12-29T13:23:31;274.98;;;260.55;;
25932;SDS011;13731;51.166;4.474;2023-12-29T13:25:59;303.35;;;287.48;;
25932;SDS011;13731;51.166;4.474;2023-12-29T13:28:27;322.52;;;305.27;;
25932;SDS011;13731;51.166;4.474;2023-12-29T13:30:55;324.90;;;307.33;;
25932;SDS011;13731;51.166;4.474;2023-12-29T13:33:34;337.35;;;318.83;;
25932;SDS011;13731;51.166;4.474;2023-12-29T13:36:36;294.27;;;278.27;;
25932;SDS011;13731;51.166;4.474;2023-12-29T13:42:08;329.80;;;311.73;;
25932;SDS011;13731;51.166;4.474;2023-12-29T13:44:36;347.93;;;328.43;;
25932;SDS011;13731;51.166;4.474;2023-12-29T13:47:05;303.60;;;287.13;;
25932;SDS011;13731;51.166;4.474;2023-12-29T13:49:31;316.55;;;299.25;;
25932;SDS011;13731;51.166;4.474;2023-12-29T13:52:02;316.42;;;299.73;;
25932;SDS011;13731;51.166;4.474;2023-12-29T13:54:29;338.55;;;319.48;;
25932;SDS011;13731;51.166;4.474;2023-12-29T13:56:55;324.40;;;306.70;;
25932;SDS011;13731;51.166;4.474;2023-12-29T13:59:30;553.90;;;510.35;;
25932;SDS011;13731;51.166;4.474;2023-12-29T14:02:15;358.38;;;339.08;;
25932;SDS011;13731;51.166;4.474;2023-12-29T14:04:48;312.20;;;294.80;;
25932;SDS011;13731;51.166;4.474;2023-12-29T14:07:14;319.52;;;301.90;;
25932;SDS011;13731;51.166;4.474;2023-12-29T14:09:44;347.13;;;328.15;;
25932;SDS011;13731;51.166;4.474;2023-12-29T14:12:10;333.67;;;314.73;;
25932;SDS011;13731;51.166;4.474;2023-12-29T14:14:36;355.27;;;335.27;;
25932;SDS011;13731;51.166;4.474;2023-12-29T14:17:04;317.90;;;300.15;;
25932;SDS011;13731;51.166;4.474;2023-12-29T14:19:36;324.38;;;306.63;;
25932;SDS011;13731;51.166;4.474;2023-12-29T14:22:03;336.25;;;317.67;;
25932;SDS011;13731;51.166;4.474;2023-12-29T14:24:29;315.20;;;297.75;;
25932;SDS011;13731;51.166;4.474;2023-12-29T14:26:56;308.00;;;290.90;;
25932;SDS011;13731;51.166;4.474;2023-12-29T14:29:23;318.05;;;300.63;;